Wetterdaten: Woche 19.04.10 - 25.04.10 (KW16)
Datum Zeit Temperatur Luftfeuchte Luftdruck Niederschlag Windrichtung Sonnenschein Solar Wind
19.04.2010 00:00 7,6 C 83 % 1012,5 hPa 0,0 l/m S-SW 0,00 h 0 W/m 7,8 km/h (2 Bft)
19.04.2010 01:00 5,6 C 89 % 1012,7 hPa 0,0 l/m N 0,00 h 0 W/m 1,7 km/h (1 Bft)
19.04.2010 02:00 4,5 C 91 % 1012,7 hPa 0,0 l/m N 0,00 h 0 W/m 0,5 km/h (0 Bft)
19.04.2010 03:00 3,6 C 93 % 1012,7 hPa 0,0 l/m N 0,00 h 0 W/m 0,0 km/h (0 Bft)
19.04.2010 04:00 2,8 C 94 % 1012,8 hPa 0,0 l/m N 0,00 h 0 W/m 0,4 km/h (0 Bft)
19.04.2010 05:00 2,1 C 95 % 1013,0 hPa 0,0 l/m N 0,00 h 0 W/m 0,0 km/h (0 Bft)
19.04.2010 06:00 1,7 C 96 % 1013,2 hPa 0,0 l/m N 0,00 h 15 W/m 0,1 km/h (0 Bft)
19.04.2010 07:00 2,4 C 96 % 1013,6 hPa 0,0 l/m N 0,58 h 101 W/m 0,4 km/h (0 Bft)
19.04.2010 08:00 5,4 C 93 % 1014,0 hPa 0,0 l/m S 1,00 h 276 W/m 3,2 km/h (1 Bft)
19.04.2010 09:00 9,8 C 82 % 1014,1 hPa 0,0 l/m S-SW 1,00 h 458 W/m 10,3 km/h (2 Bft)
19.04.2010 10:00 12,5 C 74 % 1014,1 hPa 0,0 l/m S-SW 1,00 h 613 W/m 12,9 km/h (3 Bft)
19.04.2010 11:00 14,8 C 64 % 1014,2 hPa 0,0 l/m S-SW 1,00 h 722 W/m 16,0 km/h (3 Bft)
19.04.2010 12:00 16,5 C 53 % 1013,7 hPa 0,0 l/m S 1,00 h 778 W/m 18,0 km/h (3 Bft)
19.04.2010 13:00 16,9 C 48 % 1013,4 hPa 0,0 l/m S 0,58 h 567 W/m 20,4 km/h (4 Bft)
19.04.2010 14:00 17,2 C 44 % 1013,0 hPa 0,0 l/m W-SW 0,33 h 492 W/m 16,2 km/h (3 Bft)
19.04.2010 15:00 17,8 C 42 % 1012,5 hPa 0,0 l/m W-SW 0,83 h 578 W/m 14,8 km/h (3 Bft)
19.04.2010 16:00 18,2 C 42 % 1012,2 hPa 0,0 l/m W-SW 1,00 h 536 W/m 18,2 km/h (3 Bft)
19.04.2010 17:00 17,7 C 43 % 1011,9 hPa 0,0 l/m SW 0,92 h 343 W/m 16,0 km/h (3 Bft)
19.04.2010 18:00 16,7 C 45 % 1012,0 hPa 0,0 l/m W-SW 0,50 h 150 W/m 13,2 km/h (3 Bft)
19.04.2010 19:00 15,2 C 50 % 1011,9 hPa 0,0 l/m W-SW 0,00 h 30 W/m 5,7 km/h (1 Bft)
19.04.2010 20:00 14,7 C 50 % 1012,3 hPa 0,0 l/m W-NW 0,00 h 5 W/m 13,5 km/h (3 Bft)
19.04.2010 21:00 13,8 C 54 % 1012,7 hPa 0,0 l/m SW 0,00 h 0 W/m 4,5 km/h (1 Bft)
19.04.2010 22:00 12,6 C 55 % 1012,9 hPa 0,0 l/m W-SW 0,00 h 0 W/m 6,2 km/h (2 Bft)
19.04.2010 23:00 9,8 C 69 % 1013,1 hPa 0,0 l/m N 0,00 h 0 W/m 0,7 km/h (0 Bft)
20.04.2010 00:00 8,3 C 75 % 1013,3 hPa 0,0 l/m N-NW 0,00 h 0 W/m 1,9 km/h (1 Bft)
20.04.2010 01:00 7,1 C 79 % 1013,6 hPa 0,0 l/m W-NW 0,00 h 0 W/m 1,9 km/h (1 Bft)
20.04.2010 02:00 5,9 C 85 % 1013,4 hPa 0,0 l/m N 0,00 h 0 W/m 0,4 km/h (0 Bft)
20.04.2010 03:00 5,0 C 88 % 1013,4 hPa 0,0 l/m N 0,00 h 0 W/m 0,3 km/h (0 Bft)
20.04.2010 04:00 3,9 C 91 % 1013,4 hPa 0,0 l/m N 0,00 h 0 W/m 0,0 km/h (0 Bft)
20.04.2010 05:00 3,5 C 92 % 1013,2 hPa 0,0 l/m N 0,00 h 0 W/m 0,1 km/h (0 Bft)
20.04.2010 06:00 3,2 C 93 % 1013,4 hPa 0,0 l/m N 0,00 h 15 W/m 0,7 km/h (0 Bft)
20.04.2010 07:00 3,9 C 92 % 1013,8 hPa 0,0 l/m N 0,58 h 108 W/m 0,4 km/h (0 Bft)
20.04.2010 08:00 6,8 C 83 % 1014,1 hPa 0,0 l/m W 1,00 h 251 W/m 2,7 km/h (1 Bft)
20.04.2010 09:00 10,6 C 71 % 1014,1 hPa 0,0 l/m W 0,92 h 407 W/m 4,7 km/h (1 Bft)
20.04.2010 10:00 13,9 C 53 % 1014,3 hPa 0,0 l/m W 0,67 h 418 W/m 11,7 km/h (2 Bft)
20.04.2010 11:00 15,1 C 44 % 1014,3 hPa 0,0 l/m NW 0,58 h 415 W/m 19,3 km/h (3 Bft)
20.04.2010 12:00 15,6 C 40 % 1014,3 hPa 0,0 l/m NW 0,67 h 512 W/m 20,8 km/h (4 Bft)
20.04.2010 13:00 15,0 C 43 % 1014,4 hPa 0,0 l/m NW 0,17 h 285 W/m 24,9 km/h (4 Bft)
20.04.2010 14:00 12,6 C 57 % 1015,1 hPa 0,0 l/m W 0,00 h 161 W/m 22,9 km/h (4 Bft)
20.04.2010 15:00 12,9 C 61 % 1014,8 hPa 0,0 l/m W-SW 0,33 h 358 W/m 20,0 km/h (4 Bft)
20.04.2010 16:00 14,0 C 58 % 1014,2 hPa 0,0 l/m S-SW 0,58 h 410 W/m 26,3 km/h (4 Bft)
20.04.2010 17:00 14,6 C 55 % 1013,9 hPa 0,0 l/m W-SW 0,75 h 303 W/m 24,1 km/h (4 Bft)
20.04.2010 18:00 13,5 C 61 % 1014,2 hPa 1,4 l/m SW 0,17 h 83 W/m 18,6 km/h (3 Bft)
20.04.2010 19:00 9,3 C 87 % 1014,7 hPa 1,2 l/m W 0,33 h 51 W/m 11,0 km/h (2 Bft)
20.04.2010 20:00 8,9 C 89 % 1014,6 hPa 0,0 l/m SW 0,00 h 8 W/m 10,5 km/h (2 Bft)
20.04.2010 21:00 8,5 C 89 % 1015,1 hPa 0,0 l/m S-SW 0,00 h 0 W/m 7,1 km/h (2 Bft)
20.04.2010 22:00 8,9 C 88 % 1015,2 hPa 0,0 l/m SW 0,00 h 0 W/m 16,4 km/h (3 Bft)
20.04.2010 23:00 8,9 C 85 % 1015,4 hPa 0,0 l/m W-SW 0,00 h 0 W/m 17,0 km/h (3 Bft)
21.04.2010 00:00 8,4 C 85 % 1015,7 hPa 0,0 l/m W-SW 0,00 h 0 W/m 9,0 km/h (2 Bft)
21.04.2010 01:00 7,9 C 86 % 1015,7 hPa 0,0 l/m W-NW 0,00 h 0 W/m 7,8 km/h (2 Bft)
21.04.2010 02:00 8,2 C 82 % 1015,4 hPa 0,2 l/m W 0,00 h 0 W/m 8,6 km/h (2 Bft)
21.04.2010 03:00 6,1 C 87 % 1015,3 hPa 0,0 l/m W 0,00 h 0 W/m 2,7 km/h (1 Bft)
21.04.2010 04:00 5,2 C 92 % 1015,1 hPa 0,0 l/m S-SO 0,00 h 0 W/m 3,1 km/h (1 Bft)
21.04.2010 05:00 4,7 C 92 % 1014,9 hPa 0,0 l/m N-NW 0,00 h 0 W/m 3,7 km/h (1 Bft)
21.04.2010 06:00 5,2 C 86 % 1015,0 hPa 0,0 l/m NW 0,00 h 11 W/m 5,5 km/h (1 Bft)
21.04.2010 07:00 4,2 C 92 % 1015,3 hPa 0,0 l/m N 0,50 h 95 W/m 1,5 km/h (1 Bft)
21.04.2010 08:00 6,1 C 78 % 1015,4 hPa 0,0 l/m N-NO 0,67 h 213 W/m 4,9 km/h (1 Bft)
21.04.2010 09:00 7,4 C 69 % 1015,4 hPa 0,0 l/m NO 0,83 h 437 W/m 6,7 km/h (2 Bft)
21.04.2010 10:00 8,8 C 66 % 1015,4 hPa 0,0 l/m N-NO 0,58 h 461 W/m 6,8 km/h (2 Bft)
21.04.2010 11:00 10,9 C 63 % 1015,2 hPa 0,0 l/m N-NW 1,00 h 723 W/m 9,0 km/h (2 Bft)
21.04.2010 12:00 12,7 C 59 % 1014,6 hPa 0,0 l/m W-NW 0,75 h 657 W/m 13,4 km/h (3 Bft)
21.04.2010 13:00 13,8 C 57 % 1014,0 hPa 0,0 l/m W 0,33 h 454 W/m 12,3 km/h (3 Bft)
21.04.2010 14:00 15,3 C 51 % 1013,2 hPa 0,0 l/m W-NW 0,58 h 561 W/m 16,6 km/h (3 Bft)
21.04.2010 15:00 15,9 C 42 % 1012,8 hPa 0,0 l/m W-NW 0,67 h 579 W/m 18,4 km/h (3 Bft)
21.04.2010 16:00 16,4 C 38 % 1012,4 hPa 0,0 l/m N-NW 1,00 h 552 W/m 18,1 km/h (3 Bft)
21.04.2010 17:00 15,9 C 32 % 1012,4 hPa 0,0 l/m N 1,00 h 391 W/m 21,7 km/h (4 Bft)
21.04.2010 18:00 14,8 C 30 % 1012,5 hPa 0,0 l/m NW 1,00 h 216 W/m 22,5 km/h (4 Bft)
21.04.2010 19:00 13,3 C 34 % 1012,9 hPa 0,0 l/m N-NO 0,00 h 51 W/m 15,0 km/h (3 Bft)
21.04.2010 20:00 10,9 C 44 % 1013,6 hPa 0,0 l/m NO 0,00 h 9 W/m 8,7 km/h (2 Bft)
21.04.2010 21:00 8,4 C 53 % 1014,5 hPa 0,0 l/m N 0,00 h 0 W/m 4,0 km/h (1 Bft)
21.04.2010 22:00 6,6 C 61 % 1015,5 hPa 0,0 l/m N-NO 0,00 h 0 W/m 4,1 km/h (1 Bft)
21.04.2010 23:00 5,4 C 67 % 1015,8 hPa 0,0 l/m N 0,00 h 0 W/m 3,6 km/h (1 Bft)
22.04.2010 00:00 4,8 C 69 % 1016,0 hPa 0,0 l/m N-NO 0,00 h 0 W/m 4,4 km/h (1 Bft)
22.04.2010 01:00 4,3 C 71 % 1016,2 hPa 0,0 l/m N-NO 0,00 h 0 W/m 6,1 km/h (2 Bft)
22.04.2010 02:00 3,0 C 78 % 1016,0 hPa 0,0 l/m N-NO 0,00 h 0 W/m 3,5 km/h (1 Bft)
22.04.2010 03:00 2,2 C 82 % 1015,7 hPa 0,0 l/m N-NO 0,00 h 0 W/m 3,1 km/h (1 Bft)
22.04.2010 04:00 1,8 C 83 % 1015,7 hPa 0,0 l/m N 0,00 h 0 W/m 4,7 km/h (1 Bft)
22.04.2010 05:00 1,3 C 84 % 1015,6 hPa 0,0 l/m N 0,00 h 0 W/m 5,6 km/h (1 Bft)
22.04.2010 06:00 1,0 C 85 % 1015,4 hPa 0,0 l/m N 0,08 h 17 W/m 5,6 km/h (1 Bft)
22.04.2010 07:00 2,0 C 82 % 1015,4 hPa 0,0 l/m N 0,75 h 121 W/m 6,0 km/h (2 Bft)
22.04.2010 08:00 4,5 C 74 % 1015,5 hPa 0,0 l/m NO 1,00 h 305 W/m 7,6 km/h (2 Bft)
22.04.2010 09:00 7,3 C 60 % 1015,3 hPa 0,0 l/m O-NO 1,00 h 478 W/m 13,7 km/h (3 Bft)
22.04.2010 10:00 9,2 C 53 % 1014,8 hPa 0,0 l/m O-SO 1,00 h 626 W/m 18,4 km/h (3 Bft)
22.04.2010 11:00 10,5 C 50 % 1014,3 hPa 0,0 l/m O-SO 1,00 h 731 W/m 18,8 km/h (3 Bft)
22.04.2010 12:00 11,8 C 47 % 1013,8 hPa 0,0 l/m O-NO 1,00 h 800 W/m 18,8 km/h (3 Bft)
22.04.2010 13:00 12,8 C 44 % 1013,4 hPa 0,0 l/m N-NO 1,00 h 777 W/m 16,8 km/h (3 Bft)
22.04.2010 14:00 13,3 C 44 % 1012,9 hPa 0,0 l/m O-SO 1,00 h 700 W/m 16,5 km/h (3 Bft)
22.04.2010 15:00 14,1 C 42 % 1012,4 hPa 0,0 l/m O-NO 0,83 h 537 W/m 15,2 km/h (3 Bft)
22.04.2010 16:00 14,5 C 41 % 1011,7 hPa 0,0 l/m O-SO 1,00 h 504 W/m 14,4 km/h (3 Bft)
22.04.2010 17:00 14,3 C 41 % 1011,2 hPa 0,0 l/m O-NO 0,75 h 317 W/m 15,8 km/h (3 Bft)
22.04.2010 18:00 13,8 C 41 % 1011,2 hPa 0,0 l/m NO 0,58 h 209 W/m 14,6 km/h (3 Bft)
22.04.2010 19:00 12,7 C 44 % 1010,9 hPa 0,0 l/m O-NO 0,33 h 56 W/m 9,4 km/h (2 Bft)
22.04.2010 20:00 11,0 C 51 % 1011,0 hPa 0,0 l/m N-NO 0,00 h 6 W/m 6,9 km/h (2 Bft)
22.04.2010 21:00 8,6 C 58 % 1011,4 hPa 0,0 l/m N-NO 0,00 h 0 W/m 5,9 km/h (2 Bft)
22.04.2010 22:00 7,4 C 62 % 1011,7 hPa 0,0 l/m NW 0,00 h 0 W/m 4,7 km/h (1 Bft)
22.04.2010 23:00 6,6 C 64 % 1011,6 hPa 0,0 l/m NW 0,00 h 0 W/m 4,9 km/h (1 Bft)
23.04.2010 00:00 5,6 C 65 % 1011,4 hPa 0,0 l/m NW 0,00 h 0 W/m 4,8 km/h (1 Bft)
23.04.2010 01:00 5,0 C 66 % 1011,4 hPa 0,0 l/m NW 0,00 h 0 W/m 5,7 km/h (1 Bft)
23.04.2010 02:00 4,3 C 66 % 1011,0 hPa 0,0 l/m NW 0,00 h 0 W/m 5,1 km/h (1 Bft)
23.04.2010 03:00 3,7 C 67 % 1010,8 hPa 0,0 l/m N-NW 0,00 h 0 W/m 7,2 km/h (2 Bft)
23.04.2010 04:00 3,0 C 67 % 1010,7 hPa 0,0 l/m N 0,00 h 0 W/m 7,2 km/h (2 Bft)
23.04.2010 05:00 2,7 C 66 % 1010,6 hPa 0,0 l/m N-NW 0,00 h 0 W/m 7,5 km/h (2 Bft)
23.04.2010 06:00 2,5 C 64 % 1010,9 hPa 0,0 l/m N-NW 0,08 h 19 W/m 7,1 km/h (2 Bft)
23.04.2010 07:00 3,3 C 62 % 1011,3 hPa 0,0 l/m N-NW 0,75 h 119 W/m 5,6 km/h (1 Bft)
23.04.2010 08:00 5,7 C 54 % 1011,6 hPa 0,0 l/m NO 1,00 h 264 W/m 8,8 km/h (2 Bft)
23.04.2010 09:00 8,3 C 47 % 1011,4 hPa 0,0 l/m NO 1,00 h 415 W/m 11,8 km/h (2 Bft)
23.04.2010 10:00 10,9 C 43 % 1011,4 hPa 0,0 l/m O 1,00 h 502 W/m 15,3 km/h (3 Bft)
23.04.2010 11:00 12,9 C 40 % 1011,4 hPa 0,0 l/m NO 1,00 h 613 W/m 19,8 km/h (4 Bft)
23.04.2010 12:00 14,2 C 39 % 1011,2 hPa 0,0 l/m O 1,00 h 714 W/m 19,7 km/h (3 Bft)
23.04.2010 13:00 15,4 C 37 % 1010,8 hPa 0,0 l/m O-NO 1,00 h 709 W/m 17,3 km/h (3 Bft)
23.04.2010 14:00 16,3 C 35 % 1010,8 hPa 0,0 l/m O-NO 1,00 h 574 W/m 16,0 km/h (3 Bft)
23.04.2010 15:00 16,7 C 36 % 1010,7 hPa 0,0 l/m NO 1,00 h 534 W/m 17,6 km/h (3 Bft)
23.04.2010 16:00 16,9 C 35 % 1010,8 hPa 0,0 l/m O-NO 1,00 h 464 W/m 16,8 km/h (3 Bft)
23.04.2010 17:00 16,9 C 34 % 1010,8 hPa 0,0 l/m NO 1,00 h 332 W/m 16,6 km/h (3 Bft)
23.04.2010 18:00 16,0 C 36 % 1011,3 hPa 0,0 l/m NO 0,08 h 135 W/m 14,2 km/h (3 Bft)
23.04.2010 19:00 14,6 C 42 % 1011,7 hPa 0,0 l/m NO 0,00 h 44 W/m 11,3 km/h (2 Bft)
23.04.2010 20:00 13,3 C 42 % 1012,4 hPa 0,0 l/m NO 0,17 h 12 W/m 9,8 km/h (2 Bft)
23.04.2010 21:00 11,6 C 46 % 1013,2 hPa 0,0 l/m N-NO 0,00 h 0 W/m 6,8 km/h (2 Bft)
23.04.2010 22:00 10,1 C 50 % 1013,7 hPa 0,0 l/m N-NO 0,00 h 0 W/m 4,5 km/h (1 Bft)
23.04.2010 23:00 8,8 C 53 % 1013,9 hPa 0,0 l/m N-NO 0,00 h 0 W/m 3,9 km/h (1 Bft)
24.04.2010 00:00 7,8 C 57 % 1014,1 hPa 0,0 l/m N-NO 0,00 h 0 W/m 3,9 km/h (1 Bft)
24.04.2010 01:00 7,0 C 61 % 1014,3 hPa 0,0 l/m N-NW 0,00 h 0 W/m 4,7 km/h (1 Bft)
24.04.2010 02:00 6,5 C 60 % 1014,4 hPa 0,0 l/m N-NW 0,00 h 0 W/m 4,9 km/h (1 Bft)
24.04.2010 03:00 5,6 C 64 % 1014,6 hPa 0,0 l/m N-NW 0,00 h 0 W/m 4,4 km/h (1 Bft)
24.04.2010 04:00 5,6 C 59 % 1015,0 hPa 0,0 l/m N 0,00 h 0 W/m 5,7 km/h (1 Bft)
24.04.2010 05:00 5,0 C 62 % 1015,3 hPa 0,0 l/m N 0,00 h 0 W/m 4,5 km/h (1 Bft)
24.04.2010 06:00 4,4 C 65 % 1015,5 hPa 0,0 l/m N 0,00 h 17 W/m 5,1 km/h (1 Bft)
24.04.2010 07:00 5,7 C 61 % 1016,1 hPa 0,0 l/m N 0,75 h 125 W/m 7,5 km/h (2 Bft)
24.04.2010 08:00 8,0 C 58 % 1016,7 hPa 0,0 l/m N 1,00 h 301 W/m 8,3 km/h (2 Bft)
24.04.2010 09:00 11,0 C 54 % 1016,8 hPa 0,0 l/m NO 1,00 h 476 W/m 10,8 km/h (2 Bft)
24.04.2010 10:00 13,7 C 51 % 1016,9 hPa 0,0 l/m O-NO 1,00 h 627 W/m 14,2 km/h (3 Bft)
24.04.2010 11:00 16,0 C 44 % 1017,0 hPa 0,0 l/m O-NO 1,00 h 733 W/m 18,4 km/h (3 Bft)
24.04.2010 12:00 17,4 C 39 % 1016,7 hPa 0,0 l/m O-SO 1,00 h 799 W/m 21,3 km/h (4 Bft)
24.04.2010 13:00 18,4 C 38 % 1016,3 hPa 0,0 l/m O-NO 1,00 h 810 W/m 20,6 km/h (4 Bft)
24.04.2010 14:00 19,4 C 36 % 1016,4 hPa 0,0 l/m O-NO 1,00 h 771 W/m 18,4 km/h (3 Bft)
24.04.2010 15:00 19,9 C 35 % 1016,3 hPa 0,0 l/m NO 1,00 h 678 W/m 18,5 km/h (3 Bft)
24.04.2010 16:00 20,3 C 34 % 1016,2 hPa 0,0 l/m NO 1,00 h 550 W/m 18,0 km/h (3 Bft)
24.04.2010 17:00 20,2 C 33 % 1016,1 hPa 0,0 l/m NO 1,00 h 392 W/m 17,4 km/h (3 Bft)
24.04.2010 18:00 19,6 C 33 % 1016,3 hPa 0,0 l/m O 1,00 h 220 W/m 15,6 km/h (3 Bft)
24.04.2010 19:00 18,3 C 37 % 1016,7 hPa 0,0 l/m O 0,08 h 58 W/m 11,3 km/h (2 Bft)
24.04.2010 20:00 15,7 C 46 % 1017,3 hPa 0,0 l/m O-NO 0,00 h 11 W/m 3,2 km/h (1 Bft)
24.04.2010 21:00 12,9 C 54 % 1018,1 hPa 0,0 l/m N-NO 0,00 h 0 W/m 4,5 km/h (1 Bft)
24.04.2010 22:00 11,6 C 55 % 1018,6 hPa 0,0 l/m N-NO 0,00 h 0 W/m 3,9 km/h (1 Bft)
24.04.2010 23:00 10,5 C 58 % 1018,7 hPa 0,0 l/m N-NO 0,00 h 0 W/m 3,3 km/h (1 Bft)
25.04.2010 00:00 9,5 C 61 % 1019,0 hPa 0,0 l/m N-NO 0,00 h 0 W/m 2,9 km/h (1 Bft)
25.04.2010 01:00 8,7 C 65 % 1019,1 hPa 0,0 l/m N-NO 0,00 h 0 W/m 3,3 km/h (1 Bft)
25.04.2010 02:00 8,0 C 66 % 1019,0 hPa 0,0 l/m N 0,00 h 0 W/m 4,5 km/h (1 Bft)
25.04.2010 03:00 7,4 C 67 % 1019,0 hPa 0,0 l/m N 0,00 h 0 W/m 2,5 km/h (1 Bft)
25.04.2010 04:00 6,7 C 69 % 1019,2 hPa 0,0 l/m N-NW 0,00 h 0 W/m 4,0 km/h (1 Bft)
25.04.2010 05:00 6,7 C 66 % 1019,5 hPa 0,0 l/m N-NW 0,00 h 0 W/m 4,8 km/h (1 Bft)
25.04.2010 06:00 6,5 C 65 % 1019,8 hPa 0,0 l/m N-NW 0,08 h 18 W/m 5,7 km/h (1 Bft)
25.04.2010 07:00 7,3 C 63 % 1020,5 hPa 0,0 l/m N-NW 0,58 h 112 W/m 6,9 km/h (2 Bft)
25.04.2010 08:00 9,3 C 58 % 1021,0 hPa 0,0 l/m N-NO 1,00 h 298 W/m 7,9 km/h (2 Bft)
25.04.2010 09:00 11,6 C 56 % 1021,0 hPa 0,0 l/m N-NO 1,00 h 459 W/m 6,8 km/h (2 Bft)
25.04.2010 10:00 14,1 C 53 % 1021,1 hPa 0,0 l/m O-NO 1,00 h 623 W/m 5,9 km/h (2 Bft)
25.04.2010 11:00 16,1 C 51 % 1021,1 hPa 0,0 l/m N-NO 1,00 h 731 W/m 6,5 km/h (2 Bft)
25.04.2010 12:00 18,1 C 49 % 1020,9 hPa 0,0 l/m N-NO 1,00 h 757 W/m 7,3 km/h (2 Bft)
25.04.2010 13:00 19,7 C 45 % 1020,4 hPa 0,0 l/m O-SO 1,00 h 759 W/m 8,3 km/h (2 Bft)
25.04.2010 14:00 21,3 C 37 % 1019,9 hPa 0,0 l/m O 1,00 h 770 W/m 8,8 km/h (2 Bft)
25.04.2010 15:00 22,2 C 31 % 1019,5 hPa 0,0 l/m W-NW 1,00 h 642 W/m 9,8 km/h (2 Bft)
25.04.2010 16:00 22,4 C 30 % 1019,1 hPa 0,0 l/m W-NW 1,00 h 464 W/m 9,5 km/h (2 Bft)
25.04.2010 17:00 21,7 C 32 % 1019,1 hPa 0,0 l/m N-NW 0,33 h 231 W/m 6,3 km/h (2 Bft)
25.04.2010 18:00 21,6 C 34 % 1019,2 hPa 0,0 l/m S-SO 0,92 h 214 W/m 4,9 km/h (1 Bft)
25.04.2010 19:00 20,0 C 42 % 1019,2 hPa 0,0 l/m SW 0,00 h 47 W/m 5,7 km/h (1 Bft)
25.04.2010 20:00 18,3 C 44 % 1019,5 hPa 0,0 l/m SW 0,00 h 9 W/m 2,5 km/h (1 Bft)
25.04.2010 21:00 15,8 C 57 % 1019,8 hPa 0,0 l/m N 0,00 h 0 W/m 0,3 km/h (0 Bft)
25.04.2010 22:00 13,8 C 65 % 1020,0 hPa 0,0 l/m N 0,00 h 0 W/m 0,1 km/h (0 Bft)
25.04.2010 23:00 12,4 C 69 % 1019,9 hPa 0,0 l/m N 0,00 h 0 W/m 0,1 km/h (0 Bft)
Min-Datum _ 22.04.10 21.04.10 23.04.10 - - - - 19.04.10
_ Min-Zeit 06:20 18:20 05:00 - - - - 01:10
Minimum _ 0,9 C 28 % 1010,5 hPa - - - - 0,0 km/h (0 Bft)
Max-Datum _ 25.04.10 19.04.10 25.04.10 20.04.10 - 19.04.10 21.04.10 19.04.10
_ Max-Zeit 16:00 07:30 10:15 18:55 - 07:25 13:35 20:45
Maximum _ 22,7 C 97 % 1021,2 hPa 1,4 l/m - 0,08 h 896 W/m 35,4 km/h
W-NW (5 Bft)
Durchschnitt _ 10,7 C 60 % 1014,7 hPa #2,8 l/m N-NO #70:35 h 373 W/m 9,3 km/h (2 Bft)